Time,TemperatureF,DewpointF,PressureIn,WindDirection,WindDirectionDegrees,WindSpeedMPH,WindSpeedGustMPH,Humidity,HourlyPrecipIn,Conditions,Clouds,dailyrainin,SoftwareType,DateUTC
2013-01-26 00:07:00,52.5,49.0,29.96,WNW,292,0.0,0.0,88,0.00,,,0.00,WeatherCatV1.12B45,2013-01-26 08:07:00,
2013-01-26 00:22:00,52.7,49.5,29.95,NW,315,0.0,0.0,89,0.00,,,0.00,WeatherCatV1.12B45,2013-01-26 08:22:00,
2013-01-26 00:37:00,52.9,49.4,29.95,South,180,0.0,0.0,88,0.00,,,0.00,WeatherCatV1.12B45,2013-01-26 08:37:00,
2013-01-26 00:52:00,53.2,50.1,29.94,SSW,202,2.7,2.7,89,0.00,,,0.00,WeatherCatV1.12B45,2013-01-26 08:52:00,
2013-01-26 01:07:00,53.2,50.1,29.94,SSE,157,1.3,1.3,89,0.00,,,0.00,WeatherCatV1.12B45,2013-01-26 09:07:00,
2013-01-26 01:22:00,53.2,50.1,29.95,SE,135,0.0,0.0,89,0.00,,,0.00,WeatherCatV1.12B45,2013-01-26 09:22:00,
2013-01-26 01:37:00,53.2,50.1,29.94,NW,315,0.0,0.0,89,0.00,,,0.00,WeatherCatV1.12B45,2013-01-26 09:37:00,
2013-01-26 01:52:00,53.2,50.1,29.95,NNW,337,0.0,0.0,89,0.00,,,0.00,WeatherCatV1.12B45,2013-01-26 09:52:00,
2013-01-26 02:07:00,53.4,50.2,29.95,NW,315,0.0,0.0,89,0.00,,,0.00,WeatherCatV1.12B45,2013-01-26 10:07:00,
2013-01-26 02:22:00,53.4,50.2,29.95,WNW,292,1.1,1.1,89,0.00,,,0.00,WeatherCatV1.12B45,2013-01-26 10:22:00,
2013-01-26 02:37:00,53.4,50.2,29.95,WSW,247,0.0,0.0,89,0.00,,,0.00,WeatherCatV1.12B45,2013-01-26 10:37:00,
2013-01-26 02:52:00,53.4,50.2,29.94,SSE,157,1.3,1.3,89,0.00,,,0.00,WeatherCatV1.12B45,2013-01-26 10:52:00,
2013-01-26 03:07:00,53.4,50.2,29.94,South,180,0.0,0.0,89,0.00,,,0.00,WeatherCatV1.12B45,2013-01-26 11:07:00,
2013-01-26 03:22:00,53.4,50.2,29.93,SSW,202,0.0,0.0,89,0.00,,,0.00,WeatherCatV1.12B45,2013-01-26 11:22:00,
2013-01-26 03:37:00,53.4,50.2,29.93,WNW,292,0.0,0.0,89,0.00,,,0.00,WeatherCatV1.12B45,2013-01-26 11:37:00,
2013-01-26 03:52:00,53.4,50.2,29.92,NNE,22,0.0,0.0,89,0.00,,,0.00,WeatherCatV1.12B45,2013-01-26 11:52:00,
2013-01-26 04:07:00,53.2,50.1,29.92,WNW,292,0.0,0.0,89,0.00,,,0.00,WeatherCatV1.12B45,2013-01-26 12:07:00,
2013-01-26 04:22:00,52.9,49.7,29.92,SSW,202,1.1,1.1,89,0.00,,,0.00,WeatherCatV1.12B45,2013-01-26 12:22:00,
2013-01-26 04:37:00,52.7,49.5,29.92,SE,135,0.0,0.0,89,0.00,,,0.00,WeatherCatV1.12B45,2013-01-26 12:37:00,
2013-01-26 04:52:00,52.5,49.3,29.92,SSW,202,0.0,0.0,89,0.00,,,0.00,WeatherCatV1.12B45,2013-01-26 12:52:00,
2013-01-26 05:07:00,52.7,49.5,29.91,NNW,337,0.0,0.0,89,0.00,,,0.00,WeatherCatV1.12B45,2013-01-26 13:07:00,
2013-01-26 05:22:00,52.7,49.5,29.92,North,0,0.0,0.0,89,0.00,,,0.00,WeatherCatV1.12B45,2013-01-26 13:22:00,
2013-01-26 05:37:00,52.5,49.3,29.92,NW,315,0.0,0.0,89,0.00,,,0.00,WeatherCatV1.12B45,2013-01-26 13:37:00,
2013-01-26 05:52:00,52.7,49.5,29.91,SE,135,0.0,0.0,89,0.00,,,0.00,WeatherCatV1.12B45,2013-01-26 13:52:00,
2013-01-26 06:07:00,52.7,49.5,29.91,NW,315,0.0,0.0,89,0.00,,,0.00,WeatherCatV1.12B45,2013-01-26 14:07:00,
2013-01-26 06:22:00,52.7,49.5,29.92,SSW,202,0.0,0.9,89,0.00,,,0.00,WeatherCatV1.12B45,2013-01-26 14:22:00,
2013-01-26 06:37:00,52.7,49.5,29.93,South,180,0.0,0.0,89,0.00,,,0.00,WeatherCatV1.12B45,2013-01-26 14:37:00,
2013-01-26 06:52:00,52.7,49.5,29.93,South,180,0.0,0.0,89,0.00,,,0.00,WeatherCatV1.12B45,2013-01-26 14:52:00,
2013-01-26 07:07:00,52.7,49.5,29.92,South,180,0.0,0.0,89,0.00,,,0.00,WeatherCatV1.12B45,2013-01-26 15:07:00,
2013-01-26 07:22:00,52.7,49.5,29.92,SSE,157,0.0,0.0,89,0.00,,,0.00,WeatherCatV1.12B45,2013-01-26 15:22:00,
2013-01-26 07:37:00,52.7,49.5,29.92,SSE,157,0.0,0.0,89,0.00,,,0.00,WeatherCatV1.12B45,2013-01-26 15:37:00,
2013-01-26 07:52:00,52.9,49.7,29.92,SW,225,1.1,1.1,89,0.00,,,0.00,WeatherCatV1.12B45,2013-01-26 15:52:00,
2013-01-26 08:07:00,53.1,49.9,29.93,SSW,202,1.8,1.8,89,0.00,,,0.00,WeatherCatV1.12B45,2013-01-26 16:07:00,
2013-01-26 08:22:00,53.2,50.4,29.93,SSW,202,0.0,0.0,90,0.00,,,0.00,WeatherCatV1.12B45,2013-01-26 16:22:00,
2013-01-26 08:37:00,53.2,50.4,29.93,South,180,0.0,0.0,90,0.00,,,0.00,WeatherCatV1.12B45,2013-01-26 16:37:00,
2013-01-26 08:52:00,53.4,50.5,29.93,South,180,0.0,0.0,90,0.00,,,0.00,WeatherCatV1.12B45,2013-01-26 16:52:00,
2013-01-26 09:07:00,53.8,50.9,29.93,South,180,0.0,0.0,90,0.00,,,0.00,WeatherCatV1.12B45,2013-01-26 17:07:00,
2013-01-26 09:22:00,54.1,51.3,29.94,SW,225,0.9,2.0,90,0.00,,,0.00,WeatherCatV1.12B45,2013-01-26 17:22:00,
2013-01-26 09:37:00,54.5,51.6,29.93,WSW,247,1.6,1.6,90,0.00,,,0.00,WeatherCatV1.12B45,2013-01-26 17:37:00,
2013-01-26 09:52:00,55.0,52.2,29.94,SW,225,0.0,0.0,90,0.00,,,0.00,WeatherCatV1.12B45,2013-01-26 17:52:00,
2013-01-26 10:07:00,55.6,52.7,29.94,SW,225,0.0,0.0,90,0.00,,,0.00,WeatherCatV1.12B45,2013-01-26 18:07:00,
2013-01-26 10:22:00,56.3,53.7,29.95,West,270,2.0,2.0,91,0.00,,,0.00,WeatherCatV1.12B45,2013-01-26 18:22:00,
2013-01-26 10:37:00,57.0,54.4,29.94,South,180,1.6,1.6,91,0.00,,,0.00,WeatherCatV1.12B45,2013-01-26 18:37:00,
2013-01-26 10:52:00,58.3,55.7,29.95,WNW,292,3.6,4.5,91,0.00,,,0.00,WeatherCatV1.12B45,2013-01-26 18:52:00,
2013-01-26 11:07:00,59.4,56.5,29.94,SW,225,3.4,4.0,90,0.00,,,0.00,WeatherCatV1.12B45,2013-01-26 19:07:00,
2013-01-26 11:22:00,59.7,56.5,29.94,SW,225,1.3,3.8,89,0.00,,,0.00,WeatherCatV1.12B45,2013-01-26 19:22:00,
2013-01-26 11:37:00,60.4,56.9,29.92,WSW,247,0.0,2.2,88,0.00,,,0.00,WeatherCatV1.12B45,2013-01-26 19:37:00,
2013-01-26 11:52:00,61.9,57.6,29.92,SSW,202,3.4,3.4,87,0.00,,,0.00,WeatherCatV1.12B45,2013-01-26 19:52:00,
2013-01-26 12:07:00,63.1,58.9,29.91,SSE,157,4.2,4.2,86,0.00,,,0.00,WeatherCatV1.12B45,2013-01-26 20:07:00,
2013-01-26 12:22:00,64.8,59.8,29.90,SW,225,0.0,3.1,84,0.00,,,0.00,WeatherCatV1.12B45,2013-01-26 20:22:00,
2013-01-26 12:37:00,64.2,58.3,29.90,SSW,202,0.0,5.1,81,0.00,,,0.00,WeatherCatV1.12B45,2013-01-26 20:37:00,
2013-01-26 12:52:00,63.5,56.8,29.90,North,0,0.0,3.6,79,0.00,,,0.00,WeatherCatV1.12B45,2013-01-26 20:52:00,
2013-01-26 13:07:00,63.1,56.8,29.89,WSW,247,2.0,2.7,80,0.00,,,0.00,WeatherCatV1.12B45,2013-01-26 21:07:00,
2013-01-26 13:22:00,63.1,56.1,29.88,SW,225,6.3,6.3,78,0.00,,,0.00,WeatherCatV1.12B45,2013-01-26 21:22:00,
2013-01-26 13:37:00,62.8,55.8,29.88,South,180,1.6,1.6,78,0.00,,,0.00,WeatherCatV1.12B45,2013-01-26 21:37:00,
2013-01-26 13:52:00,62.6,55.2,29.88,South,180,4.2,4.2,77,0.00,,,0.00,WeatherCatV1.12B45,2013-01-26 21:52:00,
2013-01-26 14:07:00,62.4,55.1,29.88,West,270,2.5,2.5,77,0.00,,,0.00,WeatherCatV1.12B45,2013-01-26 22:07:00,
2013-01-26 14:22:00,62.4,55.1,29.88,SW,225,1.8,1.8,77,0.00,,,0.00,WeatherCatV1.12B45,2013-01-26 22:22:00,
2013-01-26 14:37:00,62.8,55.8,29.87,WNW,292,2.2,2.2,78,0.00,,,0.00,WeatherCatV1.12B45,2013-01-26 22:37:00,
2013-01-26 14:52:00,63.7,56.7,29.87,NNW,337,0.0,2.2,78,0.00,,,0.00,WeatherCatV1.12B45,2013-01-26 22:52:00,
2013-01-26 15:07:00,64.9,57.5,29.87,NW,315,0.7,1.3,77,0.00,,,0.00,WeatherCatV1.12B45,2013-01-26 23:07:00,
2013-01-26 15:22:00,65.8,58.0,29.87,NNW,337,0.0,0.9,76,0.00,,,0.00,WeatherCatV1.12B45,2013-01-26 23:22:00,
2013-01-26 15:37:00,65.5,57.3,29.87,WSW,247,0.9,0.9,75,0.00,,,0.00,WeatherCatV1.12B45,2013-01-26 23:37:00,
2013-01-26 15:52:00,64.2,56.1,29.87,SSW,202,0.9,0.9,75,0.00,,,0.00,WeatherCatV1.12B45,2013-01-26 23:52:00,
2013-01-26 16:07:00,63.1,55.4,29.87,SSW,202,0.0,0.0,76,0.00,,,0.00,WeatherCatV1.12B45,2013-01-27 00:07:00,
2013-01-26 16:22:00,61.5,53.9,29.87,SW,225,0.9,2.9,76,0.00,,,0.00,WeatherCatV1.12B45,2013-01-27 00:22:00,
2013-01-26 16:37:00,59.7,52.2,29.88,WSW,247,4.2,4.2,76,0.00,,,0.00,WeatherCatV1.12B45,2013-01-27 00:37:00,
2013-01-26 16:52:00,57.9,50.7,29.88,South,180,2.2,6.3,77,0.00,,,0.00,WeatherCatV1.12B45,2013-01-27 00:52:00,
2013-01-26 17:07:00,56.1,48.9,29.89,South,180,5.4,5.4,77,0.00,,,0.00,WeatherCatV1.12B45,2013-01-27 01:07:00,
2013-01-26 17:22:00,54.5,47.4,29.89,SSW,202,2.5,2.5,77,0.00,,,0.00,WeatherCatV1.12B45,2013-01-27 01:22:00,
2013-01-26 17:37:00,52.9,45.9,29.89,South,180,3.1,7.2,77,0.00,,,0.00,WeatherCatV1.12B45,2013-01-27 01:37:00,
2013-01-26 17:52:00,51.6,44.7,29.90,SSW,202,5.8,7.4,77,0.00,,,0.00,WeatherCatV1.12B45,2013-01-27 01:52:00,
2013-01-26 18:07:00,50.5,43.9,29.90,SW,225,3.8,5.1,78,0.00,,,0.00,WeatherCatV1.12B45,2013-01-27 02:07:00,
2013-01-26 18:22:00,49.6,43.0,29.91,SW,225,3.1,7.6,78,0.00,,,0.00,WeatherCatV1.12B45,2013-01-27 02:22:00,
2013-01-26 18:37:00,48.7,41.8,29.92,SSW,202,9.2,9.2,77,0.00,,,0.00,WeatherCatV1.12B45,2013-01-27 02:37:00,
2013-01-26 18:52:00,48.4,41.8,29.93,SSW,202,5.1,5.1,78,0.00,,,0.00,WeatherCatV1.12B45,2013-01-27 02:52:00,
2013-01-26 19:07:00,48.4,41.8,29.93,South,180,2.9,14.8,78,0.00,,,0.00,WeatherCatV1.12B45,2013-01-27 03:07:00,
2013-01-26 19:22:00,48.4,41.8,29.93,SSW,202,0.0,5.1,78,0.00,,,0.00,WeatherCatV1.12B45,2013-01-27 03:22:00,
2013-01-26 19:37:00,48.4,41.8,29.94,SSW,202,3.4,3.4,78,0.00,,,0.00,WeatherCatV1.12B45,2013-01-27 03:37:00,
2013-01-26 19:52:00,48.0,41.4,29.93,South,180,2.5,4.0,78,0.00,,,0.00,WeatherCatV1.12B45,2013-01-27 03:52:00,
2013-01-26 20:07:00,47.5,41.3,29.94,SW,225,9.2,9.2,79,0.00,,,0.00,WeatherCatV1.12B45,2013-01-27 04:07:00,
2013-01-26 20:22:00,47.1,40.9,29.93,SW,225,2.5,3.1,79,0.00,,,0.00,WeatherCatV1.12B45,2013-01-27 04:22:00,
2013-01-26 20:37:00,46.6,40.5,29.93,South,180,3.1,4.7,79,0.00,,,0.00,WeatherCatV1.12B45,2013-01-27 04:37:00,
2013-01-26 20:52:00,46.0,40.3,29.94,SSW,202,3.4,7.2,80,0.00,,,0.00,WeatherCatV1.12B45,2013-01-27 04:52:00,
2013-01-26 21:07:00,45.9,40.4,29.95,SW,225,6.9,6.9,81,0.00,,,0.00,WeatherCatV1.12B45,2013-01-27 05:07:00,
2013-01-26 21:22:00,45.9,40.4,29.95,SSW,202,6.5,6.5,81,0.00,,,0.00,WeatherCatV1.12B45,2013-01-27 05:22:00,
2013-01-26 21:37:00,46.0,40.6,29.96,SSW,202,3.8,5.1,81,0.00,,,0.00,WeatherCatV1.12B45,2013-01-27 05:37:00,
2013-01-26 21:52:00,46.0,40.6,29.96,SW,225,7.4,7.4,81,0.00,,,0.00,WeatherCatV1.12B45,2013-01-27 05:52:00,
2013-01-26 22:07:00,45.7,40.2,29.97,SSW,202,7.4,9.8,81,0.00,,,0.00,WeatherCatV1.12B45,2013-01-27 06:07:00,
2013-01-26 22:22:00,45.5,40.0,29.97,SW,225,9.2,9.8,81,0.00,,,0.00,WeatherCatV1.12B45,2013-01-27 06:22:00,
2013-01-26 22:37:00,45.3,39.9,29.97,South,180,6.3,7.4,81,0.00,,,0.00,WeatherCatV1.12B45,2013-01-27 06:37:00,
2013-01-26 22:52:00,45.1,39.7,29.98,South,180,7.8,11.9,81,0.00,,,0.00,WeatherCatV1.12B45,2013-01-27 06:52:00,
2013-01-26 23:07:00,45.0,39.5,29.98,SSW,202,8.9,11.6,81,0.00,,,0.00,WeatherCatV1.12B45,2013-01-27 07:07:00,
2013-01-26 23:22:00,44.8,39.3,29.99,South,180,14.1,14.1,81,0.00,,,0.00,WeatherCatV1.12B45,2013-01-27 07:22:00,
2013-01-26 23:37:00,44.8,39.3,29.99,South,180,9.4,10.1,81,0.00,,,0.00,WeatherCatV1.12B45,2013-01-27 07:37:00,
2013-01-26 23:52:00,44.6,39.1,29.99,South,180,7.4,7.4,81,0.00,,,0.00,WeatherCatV1.12B45,2013-01-27 07:52:00,